sensor_id;sensor_type;location;lat;lon;timestamp;P1;durP1;ratioP1;P2;durP2;ratioP2
69005;SDS011;56061;51.748;19.620;2022-09-09T00:02:22;12.90;;;6.20;;
69005;SDS011;56061;51.748;19.620;2022-09-09T00:07:52;11.30;;;6.30;;
69005;SDS011;56061;51.748;19.620;2022-09-09T00:16:10;11.90;;;6.10;;
69005;SDS011;56061;51.748;19.620;2022-09-09T00:18:51;9.70;;;5.50;;
69005;SDS011;56061;51.748;19.620;2022-09-09T00:21:21;11.30;;;6.60;;
69005;SDS011;56061;51.748;19.620;2022-09-09T00:24:09;12.90;;;6.40;;
69005;SDS011;56061;51.748;19.620;2022-09-09T00:26:48;11.30;;;6.60;;
69005;SDS011;56061;51.748;19.620;2022-09-09T00:32:18;10.50;;;5.80;;
69005;SDS011;56061;51.748;19.620;2022-09-09T00:34:51;12.20;;;6.30;;
69005;SDS011;56061;51.748;19.620;2022-09-09T00:37:22;11.80;;;6.50;;
69005;SDS011;56061;51.748;19.620;2022-09-09T00:39:59;12.70;;;6.70;;
69005;SDS011;56061;51.748;19.620;2022-09-09T00:42:41;13.20;;;6.60;;
69005;SDS011;56061;51.748;19.620;2022-09-09T00:45:42;12.40;;;6.30;;
69005;SDS011;56061;51.748;19.620;2022-09-09T00:48:27;12.10;;;7.30;;
69005;SDS011;56061;51.748;19.620;2022-09-09T00:54:27;11.20;;;6.00;;
69005;SDS011;56061;51.748;19.620;2022-09-09T01:15:23;11.20;;;6.30;;
69005;SDS011;56061;51.748;19.620;2022-09-09T01:18:06;12.30;;;6.90;;
69005;SDS011;56061;51.748;19.620;2022-09-09T01:20:47;12.10;;;6.90;;
69005;SDS011;56061;51.748;19.620;2022-09-09T01:29:13;14.80;;;7.00;;
69005;SDS011;56061;51.748;19.620;2022-09-09T01:31:52;11.10;;;6.90;;
69005;SDS011;56061;51.748;19.620;2022-09-09T01:34:29;13.40;;;7.60;;
69005;SDS011;56061;51.748;19.620;2022-09-09T01:37:05;11.90;;;7.30;;
69005;SDS011;56061;51.748;19.620;2022-09-09T01:39:35;12.40;;;5.90;;
69005;SDS011;56061;51.748;19.620;2022-09-09T01:42:05;10.90;;;6.70;;
69005;SDS011;56061;51.748;19.620;2022-09-09T01:44:34;13.20;;;7.50;;
69005;SDS011;56061;51.748;19.620;2022-09-09T01:47:03;11.60;;;6.60;;
69005;SDS011;56061;51.748;19.620;2022-09-09T01:49:30;11.70;;;6.20;;
69005;SDS011;56061;51.748;19.620;2022-09-09T01:51:59;12.30;;;7.40;;
69005;SDS011;56061;51.748;19.620;2022-09-09T01:54:29;13.60;;;7.60;;
69005;SDS011;56061;51.748;19.620;2022-09-09T02:00:16;14.10;;;7.20;;
69005;SDS011;56061;51.748;19.620;2022-09-09T02:09:05;13.00;;;7.70;;
69005;SDS011;56061;51.748;19.620;2022-09-09T02:11:33;13.40;;;7.80;;
69005;SDS011;56061;51.748;19.620;2022-09-09T02:14:03;13.40;;;7.60;;
69005;SDS011;56061;51.748;19.620;2022-09-09T02:16:39;14.00;;;7.50;;
69005;SDS011;56061;51.748;19.620;2022-09-09T02:19:20;15.70;;;8.20;;
69005;SDS011;56061;51.748;19.620;2022-09-09T02:21:55;14.20;;;7.70;;
69005;SDS011;56061;51.748;19.620;2022-09-09T02:24:24;15.80;;;7.70;;
69005;SDS011;56061;51.748;19.620;2022-09-09T02:26:54;14.80;;;8.30;;
69005;SDS011;56061;51.748;19.620;2022-09-09T02:29:27;14.40;;;8.20;;
69005;SDS011;56061;51.748;19.620;2022-09-09T02:32:01;16.50;;;8.20;;
69005;SDS011;56061;51.748;19.620;2022-09-09T02:34:35;15.40;;;7.70;;
69005;SDS011;56061;51.748;19.620;2022-09-09T02:37:09;15.50;;;8.30;;
69005;SDS011;56061;51.748;19.620;2022-09-09T02:39:37;16.40;;;8.30;;
69005;SDS011;56061;51.748;19.620;2022-09-09T02:42:04;14.90;;;8.30;;
69005;SDS011;56061;51.748;19.620;2022-09-09T02:44:31;16.80;;;8.20;;
69005;SDS011;56061;51.748;19.620;2022-09-09T02:50:21;18.70;;;9.70;;
69005;SDS011;56061;51.748;19.620;2022-09-09T02:53:11;18.20;;;11.10;;
69005;SDS011;56061;51.748;19.620;2022-09-09T02:55:48;21.20;;;13.90;;
69005;SDS011;56061;51.748;19.620;2022-09-09T02:58:19;22.10;;;12.90;;
69005;SDS011;56061;51.748;19.620;2022-09-09T03:00:47;23.40;;;12.10;;
69005;SDS011;56061;51.748;19.620;2022-09-09T03:03:16;19.30;;;11.30;;
69005;SDS011;56061;51.748;19.620;2022-09-09T03:05:44;17.80;;;8.90;;
69005;SDS011;56061;51.748;19.620;2022-09-09T03:08:12;19.80;;;10.90;;
69005;SDS011;56061;51.748;19.620;2022-09-09T03:10:39;20.30;;;10.50;;
69005;SDS011;56061;51.748;19.620;2022-09-09T03:13:06;21.60;;;9.70;;
69005;SDS011;56061;51.748;19.620;2022-09-09T03:15:33;18.80;;;10.20;;
69005;SDS011;56061;51.748;19.620;2022-09-09T03:18:00;21.20;;;10.10;;
69005;SDS011;56061;51.748;19.620;2022-09-09T03:20:28;25.60;;;9.60;;
69005;SDS011;56061;51.748;19.620;2022-09-09T03:22:56;20.10;;;10.00;;
69005;SDS011;56061;51.748;19.620;2022-09-09T03:25:25;18.10;;;9.50;;
69005;SDS011;56061;51.748;19.620;2022-09-09T03:27:53;23.20;;;11.80;;
69005;SDS011;56061;51.748;19.620;2022-09-09T03:30:22;22.00;;;10.70;;
69005;SDS011;56061;51.748;19.620;2022-09-09T03:32:50;21.70;;;11.00;;
69005;SDS011;56061;51.748;19.620;2022-09-09T03:35:18;27.20;;;12.50;;
69005;SDS011;56061;51.748;19.620;2022-09-09T03:37:45;22.80;;;11.80;;
69005;SDS011;56061;51.748;19.620;2022-09-09T03:40:12;24.50;;;11.40;;
69005;SDS011;56061;51.748;19.620;2022-09-09T03:42:39;24.20;;;12.20;;
69005;SDS011;56061;51.748;19.620;2022-09-09T03:45:08;25.50;;;12.60;;
69005;SDS011;56061;51.748;19.620;2022-09-09T03:47:36;27.80;;;13.10;;
69005;SDS011;56061;51.748;19.620;2022-09-09T03:50:05;25.20;;;13.40;;
69005;SDS011;56061;51.748;19.620;2022-09-09T03:52:38;24.90;;;12.70;;
69005;SDS011;56061;51.748;19.620;2022-09-09T03:55:07;24.20;;;13.20;;
69005;SDS011;56061;51.748;19.620;2022-09-09T03:57:34;29.10;;;13.40;;
69005;SDS011;56061;51.748;19.620;2022-09-09T04:00:06;26.50;;;12.50;;
69005;SDS011;56061;51.748;19.620;2022-09-09T04:02:34;29.10;;;13.20;;
69005;SDS011;56061;51.748;19.620;2022-09-09T04:05:00;21.90;;;12.00;;
69005;SDS011;56061;51.748;19.620;2022-09-09T04:07:27;23.30;;;12.40;;
69005;SDS011;56061;51.748;19.620;2022-09-09T04:09:54;23.10;;;13.30;;
69005;SDS011;56061;51.748;19.620;2022-09-09T04:12:21;23.10;;;12.60;;
69005;SDS011;56061;51.748;19.620;2022-09-09T04:14:48;27.20;;;13.40;;
69005;SDS011;56061;51.748;19.620;2022-09-09T04:17:15;23.90;;;12.00;;
69005;SDS011;56061;51.748;19.620;2022-09-09T04:19:41;23.50;;;12.60;;
69005;SDS011;56061;51.748;19.620;2022-09-09T04:22:08;23.30;;;13.10;;
69005;SDS011;56061;51.748;19.620;2022-09-09T04:24:35;26.40;;;12.60;;
69005;SDS011;56061;51.748;19.620;2022-09-09T04:27:02;23.00;;;12.40;;
69005;SDS011;56061;51.748;19.620;2022-09-09T04:29:28;27.00;;;14.40;;
69005;SDS011;56061;51.748;19.620;2022-09-09T04:31:55;29.00;;;13.50;;
69005;SDS011;56061;51.748;19.620;2022-09-09T04:34:21;29.50;;;14.30;;
69005;SDS011;56061;51.748;19.620;2022-09-09T04:36:48;24.40;;;12.40;;
69005;SDS011;56061;51.748;19.620;2022-09-09T04:39:15;25.80;;;12.80;;
69005;SDS011;56061;51.748;19.620;2022-09-09T04:41:41;24.80;;;12.90;;
69005;SDS011;56061;51.748;19.620;2022-09-09T04:44:08;26.90;;;13.50;;
69005;SDS011;56061;51.748;19.620;2022-09-09T04:46:35;29.00;;;13.50;;
69005;SDS011;56061;51.748;19.620;2022-09-09T04:49:02;28.00;;;14.10;;
69005;SDS011;56061;51.748;19.620;2022-09-09T04:51:29;28.90;;;13.30;;
69005;SDS011;56061;51.748;19.620;2022-09-09T04:53:57;27.60;;;14.20;;
69005;SDS011;56061;51.748;19.620;2022-09-09T04:56:24;28.20;;;13.60;;
69005;SDS011;56061;51.748;19.620;2022-09-09T04:58:53;25.30;;;12.90;;
69005;SDS011;56061;51.748;19.620;2022-09-09T05:01:21;28.00;;;13.80;;
69005;SDS011;56061;51.748;19.620;2022-09-09T05:03:49;25.40;;;12.50;;
69005;SDS011;56061;51.748;19.620;2022-09-09T05:06:18;25.00;;;12.70;;
69005;SDS011;56061;51.748;19.620;2022-09-09T05:08:47;26.70;;;13.60;;
69005;SDS011;56061;51.748;19.620;2022-09-09T05:11:19;26.40;;;12.80;;
69005;SDS011;56061;51.748;19.620;2022-09-09T05:13:50;22.10;;;12.70;;
69005;SDS011;56061;51.748;19.620;2022-09-09T05:16:18;23.50;;;12.60;;
69005;SDS011;56061;51.748;19.620;2022-09-09T05:18:45;24.30;;;12.70;;
69005;SDS011;56061;51.748;19.620;2022-09-09T05:21:14;26.80;;;12.90;;
69005;SDS011;56061;51.748;19.620;2022-09-09T05:23:45;25.30;;;12.00;;
69005;SDS011;56061;51.748;19.620;2022-09-09T05:26:17;21.00;;;12.00;;
69005;SDS011;56061;51.748;19.620;2022-09-09T05:28:46;24.00;;;12.20;;
69005;SDS011;56061;51.748;19.620;2022-09-09T05:31:14;23.30;;;11.60;;
69005;SDS011;56061;51.748;19.620;2022-09-09T05:33:44;20.60;;;11.00;;
69005;SDS011;56061;51.748;19.620;2022-09-09T05:36:15;20.80;;;11.90;;
69005;SDS011;56061;51.748;19.620;2022-09-09T05:38:43;23.30;;;12.40;;
69005;SDS011;56061;51.748;19.620;2022-09-09T05:41:11;23.10;;;13.50;;
69005;SDS011;56061;51.748;19.620;2022-09-09T05:43:38;24.70;;;13.90;;
69005;SDS011;56061;51.748;19.620;2022-09-09T05:46:07;23.70;;;12.70;;
69005;SDS011;56061;51.748;19.620;2022-09-09T05:48:37;21.90;;;12.20;;
69005;SDS011;56061;51.748;19.620;2022-09-09T05:51:07;23.10;;;12.00;;
69005;SDS011;56061;51.748;19.620;2022-09-09T05:53:36;24.80;;;11.90;;
69005;SDS011;56061;51.748;19.620;2022-09-09T05:56:05;23.00;;;12.00;;
69005;SDS011;56061;51.748;19.620;2022-09-09T05:58:34;25.80;;;13.00;;
69005;SDS011;56061;51.748;19.620;2022-09-09T06:01:03;24.70;;;12.60;;
69005;SDS011;56061;51.748;19.620;2022-09-09T06:03:31;23.00;;;11.90;;
69005;SDS011;56061;51.748;19.620;2022-09-09T06:06:00;22.80;;;12.90;;
69005;SDS011;56061;51.748;19.620;2022-09-09T06:08:33;23.00;;;12.70;;
69005;SDS011;56061;51.748;19.620;2022-09-09T06:11:05;25.00;;;12.50;;
69005;SDS011;56061;51.748;19.620;2022-09-09T06:13:33;27.70;;;13.20;;
69005;SDS011;56061;51.748;19.620;2022-09-09T06:16:00;32.80;;;14.70;;
69005;SDS011;56061;51.748;19.620;2022-09-09T06:18:27;26.00;;;12.50;;
69005;SDS011;56061;51.748;19.620;2022-09-09T06:20:58;31.50;;;13.50;;
69005;SDS011;56061;51.748;19.620;2022-09-09T06:23:27;27.30;;;12.70;;
69005;SDS011;56061;51.748;19.620;2022-09-09T06:26:21;26.10;;;11.90;;
69005;SDS011;56061;51.748;19.620;2022-09-09T06:28:57;27.40;;;12.90;;
69005;SDS011;56061;51.748;19.620;2022-09-09T06:31:27;33.70;;;14.50;;
69005;SDS011;56061;51.748;19.620;2022-09-09T06:33:58;27.40;;;12.40;;
69005;SDS011;56061;51.748;19.620;2022-09-09T06:36:27;28.80;;;12.70;;
69005;SDS011;56061;51.748;19.620;2022-09-09T06:38:55;29.80;;;14.00;;
69005;SDS011;56061;51.748;19.620;2022-09-09T06:41:24;25.30;;;12.40;;
69005;SDS011;56061;51.748;19.620;2022-09-09T06:43:52;23.30;;;11.20;;
69005;SDS011;56061;51.748;19.620;2022-09-09T06:46:22;24.40;;;13.30;;
69005;SDS011;56061;51.748;19.620;2022-09-09T06:48:54;28.80;;;13.20;;
69005;SDS011;56061;51.748;19.620;2022-09-09T06:51:25;25.40;;;12.90;;
69005;SDS011;56061;51.748;19.620;2022-09-09T06:53:55;23.30;;;12.20;;
69005;SDS011;56061;51.748;19.620;2022-09-09T06:56:26;26.90;;;12.40;;
69005;SDS011;56061;51.748;19.620;2022-09-09T06:58:59;28.00;;;13.50;;
69005;SDS011;56061;51.748;19.620;2022-09-09T07:01:33;28.50;;;13.90;;
69005;SDS011;56061;51.748;19.620;2022-09-09T07:04:02;25.40;;;13.20;;
69005;SDS011;56061;51.748;19.620;2022-09-09T07:06:36;26.60;;;13.00;;
69005;SDS011;56061;51.748;19.620;2022-09-09T07:09:06;25.30;;;12.10;;
69005;SDS011;56061;51.748;19.620;2022-09-09T07:14:08;24.60;;;12.10;;
69005;SDS011;56061;51.748;19.620;2022-09-09T07:16:35;28.10;;;13.30;;
69005;SDS011;56061;51.748;19.620;2022-09-09T07:19:03;25.40;;;11.80;;
69005;SDS011;56061;51.748;19.620;2022-09-09T07:21:32;22.90;;;11.70;;
69005;SDS011;56061;51.748;19.620;2022-09-09T07:24:00;21.40;;;11.60;;
69005;SDS011;56061;51.748;19.620;2022-09-09T07:26:30;21.10;;;10.60;;
69005;SDS011;56061;51.748;19.620;2022-09-09T07:28:56;22.00;;;11.00;;
69005;SDS011;56061;51.748;19.620;2022-09-09T07:31:26;19.10;;;9.30;;
69005;SDS011;56061;51.748;19.620;2022-09-09T07:33:57;23.40;;;11.40;;
69005;SDS011;56061;51.748;19.620;2022-09-09T07:36:27;21.00;;;11.50;;
69005;SDS011;56061;51.748;19.620;2022-09-09T07:39:07;19.70;;;10.80;;
69005;SDS011;56061;51.748;19.620;2022-09-09T07:41:39;19.90;;;11.00;;
69005;SDS011;56061;51.748;19.620;2022-09-09T07:44:15;19.50;;;11.30;;
69005;SDS011;56061;51.748;19.620;2022-09-09T07:46:44;17.70;;;9.90;;
69005;SDS011;56061;51.748;19.620;2022-09-09T07:49:12;18.20;;;9.80;;
69005;SDS011;56061;51.748;19.620;2022-09-09T07:51:41;16.80;;;8.80;;
69005;SDS011;56061;51.748;19.620;2022-09-09T07:54:11;21.00;;;10.80;;
69005;SDS011;56061;51.748;19.620;2022-09-09T07:56:40;20.50;;;9.30;;
69005;SDS011;56061;51.748;19.620;2022-09-09T07:59:08;16.30;;;9.30;;
69005;SDS011;56061;51.748;19.620;2022-09-09T08:01:38;16.70;;;10.00;;
69005;SDS011;56061;51.748;19.620;2022-09-09T08:04:12;18.00;;;10.10;;
69005;SDS011;56061;51.748;19.620;2022-09-09T08:06:53;15.20;;;8.80;;
69005;SDS011;56061;51.748;19.620;2022-09-09T08:09:24;17.00;;;9.40;;
69005;SDS011;56061;51.748;19.620;2022-09-09T08:11:53;19.30;;;10.70;;
69005;SDS011;56061;51.748;19.620;2022-09-09T08:14:31;19.50;;;10.10;;
69005;SDS011;56061;51.748;19.620;2022-09-09T08:16:57;16.90;;;8.90;;
69005;SDS011;56061;51.748;19.620;2022-09-09T08:19:24;17.40;;;9.80;;
69005;SDS011;56061;51.748;19.620;2022-09-09T08:21:51;16.00;;;9.30;;
69005;SDS011;56061;51.748;19.620;2022-09-09T08:24:17;16.00;;;9.10;;
69005;SDS011;56061;51.748;19.620;2022-09-09T08:26:54;15.90;;;9.10;;
69005;SDS011;56061;51.748;19.620;2022-09-09T08:29:23;14.50;;;8.50;;
69005;SDS011;56061;51.748;19.620;2022-09-09T08:31:52;17.80;;;9.80;;
69005;SDS011;56061;51.748;19.620;2022-09-09T08:34:21;15.70;;;9.30;;
69005;SDS011;56061;51.748;19.620;2022-09-09T08:37:08;16.00;;;9.00;;
69005;SDS011;56061;51.748;19.620;2022-09-09T08:39:35;14.90;;;9.40;;
69005;SDS011;56061;51.748;19.620;2022-09-09T08:42:11;14.40;;;8.00;;
69005;SDS011;56061;51.748;19.620;2022-09-09T08:45:06;14.90;;;8.10;;
69005;SDS011;56061;51.748;19.620;2022-09-09T08:50:56;11.60;;;7.00;;
69005;SDS011;56061;51.748;19.620;2022-09-09T08:53:31;11.10;;;6.80;;
69005;SDS011;56061;51.748;19.620;2022-09-09T08:56:14;8.90;;;5.80;;
69005;SDS011;56061;51.748;19.620;2022-09-09T08:58:49;8.50;;;5.90;;
69005;SDS011;56061;51.748;19.620;2022-09-09T09:04:32;7.50;;;5.00;;
69005;SDS011;56061;51.748;19.620;2022-09-09T09:07:55;10.30;;;5.70;;
69005;SDS011;56061;51.748;19.620;2022-09-09T09:10:49;7.60;;;5.40;;
69005;SDS011;56061;51.748;19.620;2022-09-09T09:13:30;8.90;;;5.30;;
69005;SDS011;56061;51.748;19.620;2022-09-09T09:16:51;9.70;;;6.10;;
69005;SDS011;56061;51.748;19.620;2022-09-09T09:19:21;11.60;;;7.30;;
69005;SDS011;56061;51.748;19.620;2022-09-09T09:22:18;10.90;;;6.60;;
69005;SDS011;56061;51.748;19.620;2022-09-09T09:28:23;9.20;;;5.70;;
69005;SDS011;56061;51.748;19.620;2022-09-09T09:31:06;8.40;;;5.20;;
69005;SDS011;56061;51.748;19.620;2022-09-09T09:33:49;8.80;;;5.70;;
69005;SDS011;56061;51.748;19.620;2022-09-09T09:36:21;8.50;;;5.10;;
69005;SDS011;56061;51.748;19.620;2022-09-09T09:39:02;7.80;;;5.10;;
69005;SDS011;56061;51.748;19.620;2022-09-09T09:41:51;7.00;;;4.60;;
69005;SDS011;56061;51.748;19.620;2022-09-09T09:44:37;7.00;;;4.40;;
69005;SDS011;56061;51.748;19.620;2022-09-09T09:47:12;7.60;;;4.40;;
69005;SDS011;56061;51.748;19.620;2022-09-09T09:49:58;8.90;;;5.30;;
69005;SDS011;56061;51.748;19.620;2022-09-09T09:52:41;11.60;;;6.40;;
69005;SDS011;56061;51.748;19.620;2022-09-09T09:55:13;11.10;;;7.20;;
69005;SDS011;56061;51.748;19.620;2022-09-09T09:57:40;10.80;;;7.00;;
69005;SDS011;56061;51.748;19.620;2022-09-09T10:00:22;9.50;;;6.40;;
69005;SDS011;56061;51.748;19.620;2022-09-09T10:02:49;9.30;;;5.80;;
69005;SDS011;56061;51.748;19.620;2022-09-09T10:05:24;10.30;;;6.10;;
69005;SDS011;56061;51.748;19.620;2022-09-09T10:08:17;7.80;;;4.60;;
69005;SDS011;56061;51.748;19.620;2022-09-09T10:14:04;9.10;;;4.60;;
69005;SDS011;56061;51.748;19.620;2022-09-09T10:20:00;6.10;;;3.60;;
69005;SDS011;56061;51.748;19.620;2022-09-09T10:23:04;6.30;;;3.70;;
69005;SDS011;56061;51.748;19.620;2022-09-09T10:29:23;8.00;;;4.10;;
69005;SDS011;56061;51.748;19.620;2022-09-09T10:38:17;7.20;;;3.90;;
69005;SDS011;56061;51.748;19.620;2022-09-09T10:50:42;9.60;;;5.80;;
69005;SDS011;56061;51.748;19.620;2022-09-09T10:53:40;7.60;;;4.60;;
69005;SDS011;56061;51.748;19.620;2022-09-09T10:56:51;7.90;;;4.70;;
69005;SDS011;56061;51.748;19.620;2022-09-09T10:59:31;8.50;;;4.50;;
69005;SDS011;56061;51.748;19.620;2022-09-09T11:02:25;8.00;;;4.90;;
69005;SDS011;56061;51.748;19.620;2022-09-09T11:05:04;8.80;;;5.50;;
69005;SDS011;56061;51.748;19.620;2022-09-09T11:07:42;8.40;;;4.60;;
69005;SDS011;56061;51.748;19.620;2022-09-09T11:11:00;8.80;;;5.30;;
69005;SDS011;56061;51.748;19.620;2022-09-09T11:16:23;8.30;;;4.80;;
69005;SDS011;56061;51.748;19.620;2022-09-09T11:19:17;9.40;;;5.20;;
69005;SDS011;56061;51.748;19.620;2022-09-09T11:21:52;8.10;;;5.50;;
69005;SDS011;56061;51.748;19.620;2022-09-09T11:24:31;10.20;;;4.70;;
69005;SDS011;56061;51.748;19.620;2022-09-09T11:27:41;7.70;;;4.20;;
69005;SDS011;56061;51.748;19.620;2022-09-09T11:40:00;7.70;;;4.30;;
69005;SDS011;56061;51.748;19.620;2022-09-09T11:42:36;7.00;;;4.20;;
69005;SDS011;56061;51.748;19.620;2022-09-09T11:45:21;8.30;;;5.00;;
69005;SDS011;56061;51.748;19.620;2022-09-09T11:47:57;8.60;;;4.70;;
69005;SDS011;56061;51.748;19.620;2022-09-09T11:53:21;9.90;;;5.50;;
69005;SDS011;56061;51.748;19.620;2022-09-09T11:56:02;7.80;;;4.80;;
69005;SDS011;56061;51.748;19.620;2022-09-09T11:58:40;8.50;;;4.30;;
69005;SDS011;56061;51.748;19.620;2022-09-09T12:01:58;7.50;;;4.40;;
69005;SDS011;56061;51.748;19.620;2022-09-09T12:12:35;7.00;;;4.40;;
69005;SDS011;56061;51.748;19.620;2022-09-09T12:18:01;6.80;;;4.00;;
69005;SDS011;56061;51.748;19.620;2022-09-09T12:20:36;6.60;;;3.60;;
69005;SDS011;56061;51.748;19.620;2022-09-09T12:23:25;6.10;;;3.60;;
69005;SDS011;56061;51.748;19.620;2022-09-09T12:32:11;6.30;;;3.20;;
69005;SDS011;56061;51.748;19.620;2022-09-09T12:35:02;6.60;;;3.20;;
69005;SDS011;56061;51.748;19.620;2022-09-09T12:37:37;6.80;;;4.00;;
69005;SDS011;56061;51.748;19.620;2022-09-09T12:40:23;7.00;;;3.50;;
69005;SDS011;56061;51.748;19.620;2022-09-09T12:42:52;6.20;;;3.20;;
69005;SDS011;56061;51.748;19.620;2022-09-09T12:45:24;6.90;;;3.80;;
69005;SDS011;56061;51.748;19.620;2022-09-09T12:48:21;5.70;;;3.10;;
69005;SDS011;56061;51.748;19.620;2022-09-09T12:50:57;5.60;;;3.50;;
69005;SDS011;56061;51.748;19.620;2022-09-09T12:53:35;4.90;;;3.10;;
69005;SDS011;56061;51.748;19.620;2022-09-09T12:56:24;5.90;;;3.00;;
69005;SDS011;56061;51.748;19.620;2022-09-09T12:58:56;5.10;;;3.00;;
69005;SDS011;56061;51.748;19.620;2022-09-09T13:04:26;6.20;;;3.40;;
69005;SDS011;56061;51.748;19.620;2022-09-09T13:06:53;5.40;;;2.90;;
69005;SDS011;56061;51.748;19.620;2022-09-09T13:09:20;5.30;;;3.00;;
69005;SDS011;56061;51.748;19.620;2022-09-09T13:11:56;5.40;;;3.30;;
69005;SDS011;56061;51.748;19.620;2022-09-09T13:14:30;5.60;;;3.10;;
69005;SDS011;56061;51.748;19.620;2022-09-09T13:17:02;5.40;;;2.90;;
69005;SDS011;56061;51.748;19.620;2022-09-09T13:19:54;5.60;;;3.50;;
69005;SDS011;56061;51.748;19.620;2022-09-09T13:25:17;5.70;;;3.20;;
69005;SDS011;56061;51.748;19.620;2022-09-09T13:28:19;6.20;;;3.40;;
69005;SDS011;56061;51.748;19.620;2022-09-09T13:31:05;5.30;;;3.20;;
69005;SDS011;56061;51.748;19.620;2022-09-09T13:33:50;5.60;;;3.40;;
69005;SDS011;56061;51.748;19.620;2022-09-09T13:39:16;5.70;;;3.20;;
69005;SDS011;56061;51.748;19.620;2022-09-09T13:41:46;6.70;;;3.50;;
69005;SDS011;56061;51.748;19.620;2022-09-09T13:44:34;5.20;;;3.10;;
69005;SDS011;56061;51.748;19.620;2022-09-09T13:47:17;6.30;;;3.50;;
69005;SDS011;56061;51.748;19.620;2022-09-09T13:49:46;6.00;;;3.20;;
69005;SDS011;56061;51.748;19.620;2022-09-09T13:52:33;4.80;;;3.10;;
69005;SDS011;56061;51.748;19.620;2022-09-09T13:55:00;6.00;;;3.20;;
69005;SDS011;56061;51.748;19.620;2022-09-09T13:57:27;5.40;;;3.20;;
69005;SDS011;56061;51.748;19.620;2022-09-09T13:59:54;5.80;;;3.20;;
69005;SDS011;56061;51.748;19.620;2022-09-09T14:02:36;5.50;;;3.20;;
69005;SDS011;56061;51.748;19.620;2022-09-09T14:05:05;5.50;;;3.10;;
69005;SDS011;56061;51.748;19.620;2022-09-09T14:07:31;5.20;;;3.30;;
69005;SDS011;56061;51.748;19.620;2022-09-09T14:09:58;5.80;;;2.80;;
69005;SDS011;56061;51.748;19.620;2022-09-09T14:12:26;5.20;;;3.10;;
69005;SDS011;56061;51.748;19.620;2022-09-09T14:15:13;5.20;;;3.10;;
69005;SDS011;56061;51.748;19.620;2022-09-09T14:17:40;5.80;;;3.10;;
69005;SDS011;56061;51.748;19.620;2022-09-09T14:20:08;4.60;;;2.70;;
69005;SDS011;56061;51.748;19.620;2022-09-09T14:22:56;5.90;;;3.10;;
69005;SDS011;56061;51.748;19.620;2022-09-09T14:25:28;5.80;;;3.30;;
69005;SDS011;56061;51.748;19.620;2022-09-09T14:27:55;5.90;;;3.40;;
69005;SDS011;56061;51.748;19.620;2022-09-09T14:30:22;6.30;;;3.20;;
69005;SDS011;56061;51.748;19.620;2022-09-09T14:32:57;6.40;;;3.30;;
69005;SDS011;56061;51.748;19.620;2022-09-09T14:35:24;6.30;;;2.90;;
69005;SDS011;56061;51.748;19.620;2022-09-09T14:37:50;6.70;;;3.10;;
69005;SDS011;56061;51.748;19.620;2022-09-09T14:40:17;5.90;;;3.30;;
69005;SDS011;56061;51.748;19.620;2022-09-09T14:42:44;5.50;;;3.50;;
69005;SDS011;56061;51.748;19.620;2022-09-09T14:45:23;6.40;;;3.10;;
69005;SDS011;56061;51.748;19.620;2022-09-09T14:47:51;6.50;;;3.10;;
69005;SDS011;56061;51.748;19.620;2022-09-09T14:50:19;8.00;;;3.90;;
69005;SDS011;56061;51.748;19.620;2022-09-09T14:52:46;7.30;;;4.20;;
69005;SDS011;56061;51.748;19.620;2022-09-09T14:55:14;5.80;;;3.30;;
69005;SDS011;56061;51.748;19.620;2022-09-09T14:58:03;8.70;;;4.00;;
69005;SDS011;56061;51.748;19.620;2022-09-09T15:00:30;7.30;;;4.00;;
69005;SDS011;56061;51.748;19.620;2022-09-09T15:02:56;8.60;;;4.10;;
69005;SDS011;56061;51.748;19.620;2022-09-09T15:05:23;6.40;;;4.00;;
69005;SDS011;56061;51.748;19.620;2022-09-09T15:08:15;7.30;;;4.10;;
69005;SDS011;56061;51.748;19.620;2022-09-09T15:10:42;7.00;;;3.50;;
69005;SDS011;56061;51.748;19.620;2022-09-09T15:13:11;6.50;;;3.60;;
69005;SDS011;56061;51.748;19.620;2022-09-09T15:15:46;6.80;;;3.70;;
69005;SDS011;56061;51.748;19.620;2022-09-09T15:18:13;7.30;;;3.90;;
69005;SDS011;56061;51.748;19.620;2022-09-09T15:20:44;7.30;;;4.00;;
69005;SDS011;56061;51.748;19.620;2022-09-09T15:23:12;7.30;;;4.10;;
69005;SDS011;56061;51.748;19.620;2022-09-09T15:26:02;8.10;;;4.00;;
69005;SDS011;56061;51.748;19.620;2022-09-09T15:28:29;7.10;;;4.20;;
69005;SDS011;56061;51.748;19.620;2022-09-09T15:30:57;8.10;;;4.00;;
69005;SDS011;56061;51.748;19.620;2022-09-09T15:33:26;7.50;;;3.70;;
69005;SDS011;56061;51.748;19.620;2022-09-09T15:36:24;7.20;;;4.00;;
69005;SDS011;56061;51.748;19.620;2022-09-09T15:38:52;8.10;;;4.40;;
69005;SDS011;56061;51.748;19.620;2022-09-09T15:41:21;6.60;;;4.00;;
69005;SDS011;56061;51.748;19.620;2022-09-09T15:43:57;7.60;;;4.30;;
69005;SDS011;56061;51.748;19.620;2022-09-09T15:46:35;7.60;;;4.60;;
69005;SDS011;56061;51.748;19.620;2022-09-09T15:49:16;7.70;;;4.10;;
69005;SDS011;56061;51.748;19.620;2022-09-09T15:52:09;8.40;;;4.40;;
69005;SDS011;56061;51.748;19.620;2022-09-09T15:54:37;6.90;;;4.30;;
69005;SDS011;56061;51.748;19.620;2022-09-09T15:57:07;8.70;;;4.50;;
69005;SDS011;56061;51.748;19.620;2022-09-09T15:59:45;8.50;;;4.60;;
69005;SDS011;56061;51.748;19.620;2022-09-09T16:02:11;7.70;;;4.80;;
69005;SDS011;56061;51.748;19.620;2022-09-09T16:04:38;7.40;;;4.30;;
69005;SDS011;56061;51.748;19.620;2022-09-09T16:07:05;7.30;;;4.20;;
69005;SDS011;56061;51.748;19.620;2022-09-09T16:09:32;8.40;;;5.40;;
69005;SDS011;56061;51.748;19.620;2022-09-09T16:12:26;9.00;;;4.80;;
69005;SDS011;56061;51.748;19.620;2022-09-09T16:14:53;7.60;;;4.40;;
69005;SDS011;56061;51.748;19.620;2022-09-09T16:17:19;8.30;;;4.90;;
69005;SDS011;56061;51.748;19.620;2022-09-09T16:20:07;8.70;;;4.90;;
69005;SDS011;56061;51.748;19.620;2022-09-09T16:22:34;8.60;;;5.50;;
69005;SDS011;56061;51.748;19.620;2022-09-09T16:25:01;8.60;;;5.30;;
69005;SDS011;56061;51.748;19.620;2022-09-09T16:27:27;8.00;;;5.00;;
69005;SDS011;56061;51.748;19.620;2022-09-09T16:30:07;9.60;;;5.00;;
69005;SDS011;56061;51.748;19.620;2022-09-09T16:32:34;9.40;;;5.00;;
69005;SDS011;56061;51.748;19.620;2022-09-09T16:35:01;11.00;;;5.30;;
69005;SDS011;56061;51.748;19.620;2022-09-09T16:37:28;9.20;;;5.40;;
69005;SDS011;56061;51.748;19.620;2022-09-09T16:39:55;9.00;;;5.30;;
69005;SDS011;56061;51.748;19.620;2022-09-09T16:42:31;8.40;;;5.60;;
69005;SDS011;56061;51.748;19.620;2022-09-09T16:45:04;8.30;;;5.20;;
69005;SDS011;56061;51.748;19.620;2022-09-09T16:47:31;8.70;;;5.70;;
69005;SDS011;56061;51.748;19.620;2022-09-09T16:49:58;11.20;;;5.60;;
69005;SDS011;56061;51.748;19.620;2022-09-09T16:52:24;11.00;;;5.70;;
69005;SDS011;56061;51.748;19.620;2022-09-09T16:55:05;11.00;;;6.30;;
69005;SDS011;56061;51.748;19.620;2022-09-09T16:57:31;12.20;;;6.80;;
69005;SDS011;56061;51.748;19.620;2022-09-09T16:59:58;9.90;;;6.40;;
69005;SDS011;56061;51.748;19.620;2022-09-09T17:02:25;13.10;;;6.90;;
69005;SDS011;56061;51.748;19.620;2022-09-09T17:04:52;12.10;;;7.30;;
69005;SDS011;56061;51.748;19.620;2022-09-09T17:07:18;12.70;;;7.10;;
69005;SDS011;56061;51.748;19.620;2022-09-09T17:09:45;11.10;;;6.30;;
69005;SDS011;56061;51.748;19.620;2022-09-09T17:12:11;11.00;;;6.40;;
69005;SDS011;56061;51.748;19.620;2022-09-09T17:14:38;12.60;;;7.40;;